Ilasco, Missouri
Current Conditions -  °F | °C
As of 11:55 PM on Friday 19 Dec 2014 (Local Time) from KHAE Reporting Station
Overcast Overcast  
Wind Chill: -1°   Ceiling: 4400
Heat Index:   Visibility: 10mi
Dew Point: -3°   Wind: 5mph
Humidity: 75%   Direction: 120°ESE
Pressure: 30.25"   Gusts: NA
Location:  39.7145°N, 91.4209°W
Report Text: KHAE 200555Z AUTO 12004KT 10SM SCT025 OVC044 01/M03 A3025 RMK AO2
Loading
Personal Weather Stations






























Interactive Weather Map New forecast layout! Learn more

10-Day Weather Forecast

Advertisements
Track Severe Weather on mobile